Time;durP1;ratioP1;P1;durP2;ratioP2;P2;SDS_P1;SDS_P2;PMS_P1;PMS_P2;Temp;Humidity;BMP_temperature;BMP_pressure;BME280_temperature;BME280_humidity;BME280_pressure;Samples;Min_cycle;Max_cycle;Signal;HPM_P1;HPM_P2
2022/09/14 00:01:49;;;;;;;2.65;1.52;;;;;;;18.79;54.51;99903.66;5108271;27;20352;-65
2022/09/14 00:04:18;;;;;;;4.40;2.03;;;;;;;18.66;54.28;99890.81;5108605;27;20058;-65
2022/09/14 00:06:44;;;;;;;4.28;1.90;;;;;;;18.73;54.28;99894.44;5106625;28;20034;-65
2022/09/14 00:09:18;;;;;;;5.15;1.95;;;;;;;18.68;54.64;99887.91;5110260;27;20060;-66
2022/09/14 00:11:44;;;;;;;2.47;1.90;;;;;;;18.61;54.92;99887.03;5107329;27;20112;-66
2022/09/14 00:14:09;;;;;;;4.90;1.60;;;;;;;18.60;54.66;99890.78;5107606;28;20076;-65
2022/09/14 00:16:39;;;;;;;4.32;1.92;;;;;;;18.55;54.76;99880.50;5109079;27;20035;-65
2022/09/14 00:19:07;;;;;;;3.42;1.80;;;;;;;18.58;54.87;99882.84;5111835;27;20031;-65
2022/09/14 00:21:37;;;;;;;3.20;1.50;;;;;;;18.55;54.90;99874.22;5107429;27;20751;-65
2022/09/14 00:24:04;;;;;;;4.65;2.15;;;;;;;18.50;54.96;99882.97;5106447;28;20036;-65
2022/09/14 00:26:30;;;;;;;4.57;1.75;;;;;;;18.52;55.02;99875.47;5109714;27;20058;-65
2022/09/14 00:28:57;;;;;;;2.47;2.15;;;;;;;18.49;55.29;99884.00;5106221;28;20127;-66
2022/09/14 00:31:24;;;;;;;4.05;1.95;;;;;;;18.45;55.31;99876.44;5107006;28;20031;-66
2022/09/14 00:33:51;;;;;;;6.05;2.03;;;;;;;18.42;55.40;99883.09;5104004;28;20028;-66
2022/09/14 00:36:19;;;;;;;2.85;2.10;;;;;;;18.39;55.18;99888.06;5106525;28;20035;-66
2022/09/14 00:38:46;;;;;;;2.42;1.85;;;;;;;18.35;55.67;99878.63;5111241;27;20027;-67
2022/09/14 00:41:16;;;;;;;2.13;1.92;;;;;;;18.35;55.14;99886.75;5106939;27;20169;-67
2022/09/14 00:43:54;;;;;;;3.35;1.80;;;;;;;18.30;55.28;99878.34;5111030;27;20062;-66
2022/09/14 00:46:20;;;;;;;5.43;2.28;;;;;;;18.21;55.37;99865.97;5108926;27;20043;-67
2022/09/14 00:48:45;;;;;;;5.55;2.30;;;;;;;18.15;55.42;99864.03;5108181;27;20031;-66
2022/09/14 00:51:12;;;;;;;9.45;2.95;;;;;;;18.19;55.53;99873.44;5106977;28;20026;-66
2022/09/14 00:53:38;;;;;;;4.88;2.75;;;;;;;18.18;55.74;99875.31;5106538;27;20020;-67
2022/09/14 00:56:04;;;;;;;5.35;2.60;;;;;;;18.15;55.76;99864.03;5109420;27;20039;-66
2022/09/14 00:58:29;;;;;;;7.20;3.05;;;;;;;18.14;55.84;99857.75;5106781;28;20054;-67
2022/09/14 01:00:56;;;;;;;4.95;2.65;;;;;;;18.13;55.40;99856.06;5109419;27;20031;-66
2022/09/14 01:03:21;;;;;;;5.88;2.45;;;;;;;18.09;55.53;99858.31;5108049;27;20024;-66
2022/09/14 01:06:08;;;;;;;5.13;2.38;;;;;;;18.08;55.39;99857.69;5104310;28;20384;-67
2022/09/14 01:09:11;;;;;;;3.38;1.98;;;;;;;18.04;55.40;99862.66;5104697;27;20045;-68
2022/09/14 01:12:01;;;;;;;3.15;1.95;;;;;;;17.93;55.67;99849.59;5104542;28;20046;-68
2022/09/14 01:14:30;;;;;;;3.90;2.05;;;;;;;17.96;55.84;99860.06;5106202;28;20080;-66
2022/09/14 01:16:59;;;;;;;3.58;2.00;;;;;;;17.94;55.91;99862.97;5105740;27;20043;-67
2022/09/14 01:19:43;;;;;;;4.97;2.30;;;;;;;17.89;56.00;99853.72;5106990;27;20086;-66
2022/09/14 01:22:17;;;;;;;4.00;2.22;;;;;;;17.89;56.38;99860.00;5105538;28;20786;-65
2022/09/14 01:24:47;;;;;;;4.97;2.10;;;;;;;17.86;56.08;99856.81;5107367;27;20230;-65
2022/09/14 01:27:30;;;;;;;2.95;1.70;;;;;;;17.82;56.34;99853.66;5104064;28;20032;-65
2022/09/14 01:29:56;;;;;;;2.10;1.70;;;;;;;17.78;56.62;99841.53;5103573;28;20047;-66
2022/09/14 01:32:30;;;;;;;4.15;2.53;;;;;;;17.77;56.60;99845.25;5105023;28;20331;-65
2022/09/14 01:35:29;;;;;;;3.85;2.22;;;;;;;17.73;56.47;99843.09;5105027;27;20073;-65
2022/09/14 01:38:03;;;;;;;3.78;2.30;;;;;;;17.70;56.73;99838.06;5105701;27;20463;-65
2022/09/14 01:40:36;;;;;;;2.78;2.30;;;;;;;17.68;56.62;99834.72;5104944;27;20019;-66
2022/09/14 01:43:25;;;;;;;3.30;2.00;;;;;;;17.62;56.68;99830.06;5104670;28;20483;-67
2022/09/14 01:45:54;;;;;;;3.28;2.20;;;;;;;17.62;56.80;99827.34;5102323;28;20276;-66
2022/09/14 01:48:29;;;;;;;5.68;2.40;;;;;;;17.61;56.83;99825.66;5103436;28;20028;-67
2022/09/14 01:50:58;;;;;;;6.07;2.28;;;;;;;17.54;56.84;99814.72;5104144;28;20046;-65
2022/09/14 01:53:36;;;;;;;2.58;2.22;;;;;;;17.53;57.05;99809.50;5104958;28;20031;-65
2022/09/14 01:56:19;;;;;;;3.33;2.58;;;;;;;17.59;57.03;99831.28;5103866;28;20023;-65
2022/09/14 01:58:52;;;;;;;3.58;2.67;;;;;;;17.55;56.98;99827.28;5103631;28;20036;-65
2022/09/14 02:01:23;;;;;;;4.07;3.17;;;;;;;17.52;57.19;99819.53;5103533;28;20064;-65
2022/09/14 02:03:57;;;;;;;3.45;2.97;;;;;;;17.54;57.08;99825.59;5102658;28;20180;-66
2022/09/14 02:06:36;;;;;;;4.70;2.73;;;;;;;17.51;57.05;99823.25;5104682;28;20071;-66
2022/09/14 02:09:04;;;;;;;5.97;2.92;;;;;;;17.47;57.11;99815.69;5104306;28;20032;-66
2022/09/14 02:11:29;;;;;;;3.25;2.22;;;;;;;17.44;57.29;99814.19;5106036;28;20067;-66
2022/09/14 02:13:56;;;;;;;2.97;2.25;;;;;;;17.46;57.33;99814.00;5106614;27;20066;-65
2022/09/14 02:16:22;;;;;;;2.50;2.30;;;;;;;17.44;57.51;99816.06;5104316;28;20027;-67
2022/09/14 02:18:48;;;;;;;4.30;2.15;;;;;;;17.43;57.40;99809.81;5106022;28;20026;-65
2022/09/14 02:21:21;;;;;;;2.40;1.80;;;;;;;17.39;57.97;99802.22;5108947;27;20031;-65
2022/09/14 02:23:50;;;;;;;4.18;2.10;;;;;;;17.35;57.82;99793.63;5105601;27;20038;-65
2022/09/14 02:26:20;;;;;;;4.05;1.95;;;;;;;17.33;57.92;99800.25;5106788;28;20091;-65
2022/09/14 02:28:45;;;;;;;5.25;2.35;;;;;;;17.31;57.94;99789.63;5105612;28;20027;-66
2022/09/14 02:31:32;;;;;;;3.03;2.30;;;;;;;17.30;58.00;99782.53;5106864;28;20015;-65
2022/09/14 02:34:07;;;;;;;2.58;2.00;;;;;;;17.28;58.34;99783.75;5104469;28;20515;-66
2022/09/14 02:37:09;;;;;;;3.33;2.17;;;;;;;17.26;58.18;99781.22;5105080;28;20035;-66
2022/09/14 02:40:18;;;;;;;4.22;2.13;;;;;;;17.23;58.37;99783.47;5107670;27;20023;-67
2022/09/14 02:43:01;;;;;;;4.22;1.95;;;;;;;17.19;58.39;99774.03;5103906;28;20031;-67
2022/09/14 02:45:54;;;;;;;3.03;1.97;;;;;;;17.12;58.38;99771.25;5104347;28;20023;-67
2022/09/14 02:48:32;;;;;;;3.13;2.33;;;;;;;17.15;58.77;99775.47;5106617;28;20379;-67
2022/09/14 02:50:57;;;;;;;6.15;2.60;;;;;;;17.14;59.22;99781.88;5103965;28;20391;-67
2022/09/14 02:53:58;;;;;;;3.45;2.30;;;;;;;17.15;58.82;99780.88;5107337;28;20023;-67
2022/09/14 02:56:24;;;;;;;2.15;1.77;;;;;;;17.05;58.93;99761.34;5102463;28;20126;-67
2022/09/14 02:58:50;;;;;;;5.00;2.30;;;;;;;17.07;59.26;99781.81;5106931;27;20082;-67
2022/09/14 03:01:18;;;;;;;4.38;2.45;;;;;;;17.03;59.20;99766.13;5106353;28;20051;-67
2022/09/14 03:03:43;;;;;;;5.72;2.58;;;;;;;16.99;59.79;99775.66;5109565;28;20034;-67
2022/09/14 03:06:09;;;;;;;3.10;2.33;;;;;;;17.00;59.65;99775.47;5104562;28;20035;-67
2022/09/14 03:08:35;;;;;;;3.35;2.58;;;;;;;16.98;60.00;99768.56;5108021;28;20095;-67
2022/09/14 03:11:01;;;;;;;4.63;2.40;;;;;;;16.96;59.96;99767.91;5103407;28;20142;-67
2022/09/14 03:13:26;;;;;;;5.75;2.40;;;;;;;16.94;60.31;99764.53;5107196;28;20057;-66
2022/09/14 03:15:52;;;;;;;4.00;2.60;;;;;;;16.91;60.09;99775.75;5103857;28;20039;-66
2022/09/14 03:18:18;;;;;;;5.55;2.40;;;;;;;16.91;60.16;99770.34;5104548;28;20085;-65
2022/09/14 03:20:43;;;;;;;4.18;2.13;;;;;;;16.90;60.33;99768.66;5105610;28;20070;-65
2022/09/14 03:23:10;;;;;;;4.35;2.25;;;;;;;16.80;60.48;99749.97;5104172;28;20020;-66
2022/09/14 03:25:37;;;;;;;2.53;2.30;;;;;;;16.86;60.67;99756.53;5103000;28;20077;-66
2022/09/14 03:28:03;;;;;;;6.10;3.00;;;;;;;16.86;60.82;99748.41;5104981;28;20043;-67
2022/09/14 03:30:29;;;;;;;3.53;2.03;;;;;;;16.83;60.94;99754.19;5103425;28;20076;-66
2022/09/14 03:32:56;;;;;;;3.92;2.58;;;;;;;16.79;61.41;99751.00;5104418;28;20041;-65
2022/09/14 03:35:22;;;;;;;4.45;2.83;;;;;;;16.78;61.66;99749.34;5101639;28;20575;-65
2022/09/14 03:37:47;;;;;;;2.92;2.60;;;;;;;16.77;61.75;99741.41;5104178;28;20031;-65
2022/09/14 03:40:14;;;;;;;4.90;2.25;;;;;;;16.75;61.67;99744.31;5103393;28;20076;-65
2022/09/14 03:42:46;;;;;;;4.50;2.75;;;;;;;16.77;61.73;99744.13;5104935;28;20027;-65
2022/09/14 03:45:13;;;;;;;3.38;2.55;;;;;;;16.72;61.91;99735.69;5105779;27;20046;-65
2022/09/14 03:47:39;;;;;;;7.25;3.03;;;;;;;16.73;62.08;99740.94;5104863;28;20054;-64
2022/09/14 03:50:06;;;;;;;7.57;2.63;;;;;;;16.71;62.05;99731.31;5107340;28;20054;-64
2022/09/14 03:52:33;;;;;;;5.70;2.45;;;;;;;16.75;62.22;99741.59;5103279;28;20603;-65
2022/09/14 03:54:58;;;;;;;5.80;2.85;;;;;;;16.70;62.18;99735.88;5104153;28;20031;-65
2022/09/14 03:57:24;;;;;;;6.35;3.03;;;;;;;16.76;62.54;99737.84;5102796;28;20092;-64
2022/09/14 03:59:49;;;;;;;3.25;2.50;;;;;;;16.75;62.50;99738.88;5109037;27;20027;-65
2022/09/14 04:02:14;;;;;;;4.18;2.95;;;;;;;16.77;62.75;99739.50;5105791;27;20047;-65
2022/09/14 04:04:40;;;;;;;5.15;3.22;;;;;;;16.68;62.96;99726.28;5110903;27;20061;-65
2022/09/14 04:07:06;;;;;;;3.28;2.80;;;;;;;16.73;63.17;99727.38;5110844;27;20024;-65
2022/09/14 04:09:32;;;;;;;5.25;3.00;;;;;;;16.73;63.51;99738.22;5108127;28;20047;-66
2022/09/14 04:11:58;;;;;;;3.42;2.45;;;;;;;16.73;63.39;99740.09;5110489;27;20465;-67
2022/09/14 04:14:24;;;;;;;4.53;2.60;;;;;;;16.72;63.84;99741.13;5108636;27;20735;-65
2022/09/14 04:16:50;;;;;;;11.63;2.67;;;;;;;16.67;63.90;99732.72;5107903;27;20028;-66
2022/09/14 04:19:15;;;;;;;6.43;2.92;;;;;;;16.74;63.89;99745.34;5108126;27;20894;-66
2022/09/14 04:21:41;;;;;;;4.10;2.70;;;;;;;16.75;63.61;99738.03;5110009;27;20043;-66
2022/09/14 04:24:10;;;;;;;7.75;3.38;;;;;;;16.75;63.89;99743.44;5108147;27;20088;-66
2022/09/14 04:26:36;;;;;;;4.85;2.80;;;;;;;16.69;64.04;99727.94;5107487;27;20042;-66
2022/09/14 04:29:02;;;;;;;4.00;2.58;;;;;;;16.79;63.89;99742.88;5109200;27;20487;-66
2022/09/14 04:31:28;;;;;;;5.38;3.17;;;;;;;16.81;63.93;99743.56;5109646;27;20031;-65
2022/09/14 04:33:55;;;;;;;4.07;3.00;;;;;;;16.85;64.12;99738.59;5106410;27;20155;-65
2022/09/14 04:36:22;;;;;;;7.20;2.85;;;;;;;16.79;64.64;99729.34;5107054;27;20039;-65
2022/09/14 04:38:52;;;;;;;5.60;2.97;;;;;;;16.79;64.72;99733.91;5107164;27;20019;-65
2022/09/14 04:41:19;;;;;;;7.00;2.97;;;;;;;16.76;64.71;99737.00;5107700;27;20560;-66
2022/09/14 04:43:46;;;;;;;5.63;3.05;;;;;;;16.76;64.78;99742.41;5099781;28;20031;-66
2022/09/14 04:46:16;;;;;;;5.57;3.10;;;;;;;16.64;64.88;99723.09;5107142;28;20030;-65
2022/09/14 04:48:42;;;;;;;8.05;3.20;;;;;;;16.73;65.05;99734.69;5110358;27;20038;-66
2022/09/14 04:51:12;;;;;;;9.52;3.20;;;;;;;16.76;65.51;99739.69;5107594;28;20023;-65
2022/09/14 04:53:38;;;;;;;12.23;3.58;;;;;;;16.77;65.23;99731.41;5106496;28;20110;-65
2022/09/14 04:56:07;;;;;;;6.90;3.25;;;;;;;16.82;65.19;99750.63;5107133;28;20446;-65
2022/09/14 04:58:34;;;;;;;7.18;3.17;;;;;;;16.86;65.41;99732.16;5105049;27;20491;-65
2022/09/14 05:01:01;;;;;;;6.13;3.28;;;;;;;16.80;65.48;99700.41;5103262;28;20032;-65
2022/09/14 05:03:27;;;;;;;5.82;3.20;;;;;;;16.95;65.03;99717.44;5108044;27;20752;-65
2022/09/14 05:05:52;;;;;;;4.22;3.13;;;;;;;16.94;65.16;99704.94;5107038;27;20096;-65
2022/09/14 05:08:18;;;;;;;4.57;2.80;;;;;;;16.98;65.58;99707.09;5106734;27;20028;-65
2022/09/14 05:10:43;;;;;;;4.60;3.33;;;;;;;17.03;65.33;99709.22;5106752;27;20048;-66
2022/09/14 05:13:09;;;;;;;6.57;2.92;;;;;;;17.03;65.68;99711.94;5105492;27;20030;-66
2022/09/14 05:15:35;;;;;;;7.25;3.70;;;;;;;17.08;65.94;99710.34;5105270;28;20027;-67
2022/09/14 05:18:02;;;;;;;6.05;3.30;;;;;;;17.14;65.80;99706.00;5110102;27;20042;-67
2022/09/14 05:20:27;;;;;;;5.95;3.05;;;;;;;17.07;66.23;99689.69;5105963;27;20039;-67
2022/09/14 05:22:53;;;;;;;5.13;3.35;;;;;;;17.21;66.28;99704.22;5109695;27;20061;-67
2022/09/14 05:25:18;;;;;;;7.00;3.78;;;;;;;17.30;66.00;99706.63;5105132;28;20027;-67
2022/09/14 05:27:44;;;;;;;4.00;3.08;;;;;;;17.31;66.74;99702.88;5105974;27;20035;-68
2022/09/14 05:30:09;;;;;;;5.07;3.30;;;;;;;17.39;66.68;99715.47;5107394;27;20015;-67
2022/09/14 05:32:35;;;;;;;9.60;3.40;;;;;;;17.39;66.32;99691.91;5107626;27;20019;-67
2022/09/14 05:35:00;;;;;;;5.15;3.75;;;;;;;17.47;66.91;99696.38;5105391;28;20028;-67
2022/09/14 05:37:26;;;;;;;5.25;3.33;;;;;;;17.45;66.66;99695.75;5107122;27;20080;-67
2022/09/14 05:39:52;;;;;;;6.70;3.65;;;;;;;17.54;67.00;99703.56;5107277;27;20070;-67
2022/09/14 05:42:17;;;;;;;9.32;3.42;;;;;;;17.48;67.25;99688.06;5104687;28;20443;-67
2022/09/14 05:44:43;;;;;;;4.35;2.88;;;;;;;17.59;67.21;99701.13;5105072;28;20122;-67
2022/09/14 05:47:08;;;;;;;6.45;3.35;;;;;;;17.65;67.81;99705.75;5105530;28;20107;-67
2022/09/14 05:49:34;;;;;;;5.93;3.50;;;;;;;17.69;67.71;99700.78;5104989;28;20016;-67
2022/09/14 05:51:59;;;;;;;6.03;3.40;;;;;;;17.68;67.80;99693.69;5107649;27;20036;-67
2022/09/14 05:54:25;;;;;;;4.65;3.25;;;;;;;17.88;67.75;99706.38;5106510;27;20042;-67
2022/09/14 05:56:50;;;;;;;8.57;3.60;;;;;;;17.99;67.76;99708.53;5105658;28;20043;-67
2022/09/14 05:59:15;;;;;;;3.63;3.20;;;;;;;18.16;67.58;99714.53;5105000;28;20119;-68
2022/09/14 06:01:41;;;;;;;6.25;3.10;;;;;;;18.24;67.05;99687.22;5104957;28;20046;-68
2022/09/14 06:04:09;;;;;;;5.60;3.42;;;;;;;18.60;66.27;99701.47;5107308;27;20114;-67
2022/09/14 06:06:34;;;;;;;8.65;3.08;;;;;;;18.88;65.47;99693.22;5108218;27;20033;-68
2022/09/14 06:09:00;;;;;;;3.60;2.80;;;;;;;19.14;64.79;99694.19;5100617;28;20147;-67
2022/09/14 06:11:31;;;;;;;9.43;3.25;;;;;;;19.39;63.71;99689.88;5101977;28;20101;-67
2022/09/14 06:13:57;;;;;;;5.18;3.20;;;;;;;19.55;62.81;99686.78;5104005;28;20036;-66
2022/09/14 06:16:25;;;;;;;7.65;2.80;;;;;;;19.72;62.66;99685.31;5105877;28;20494;-66
2022/09/14 06:18:50;;;;;;;5.80;3.28;;;;;;;19.80;62.56;99684.28;5108224;27;20484;-66
2022/09/14 06:21:18;;;;;;;5.20;3.08;;;;;;;19.87;62.46;99688.66;5103612;28;20032;-67
2022/09/14 06:23:45;;;;;;;4.70;3.42;;;;;;;20.00;62.50;99696.81;5104712;28;20032;-67
2022/09/14 06:26:11;;;;;;;8.18;2.92;;;;;;;20.07;62.41;99696.84;5105290;28;20535;-66
2022/09/14 06:28:36;;;;;;;6.28;3.20;;;;;;;20.15;62.42;99694.75;5105693;28;20085;-67
2022/09/14 06:31:06;;;;;;;5.90;2.72;;;;;;;20.26;62.15;99693.28;5104694;28;20031;-66
2022/09/14 06:33:32;;;;;;;4.82;2.70;;;;;;;20.39;62.14;99682.38;5105541;28;20031;-68
2022/09/14 06:36:01;;;;;;;4.88;2.70;;;;;;;20.49;62.28;99696.38;5106699;27;20146;-67
2022/09/14 06:38:27;;;;;;;4.90;2.95;;;;;;;20.61;62.02;99691.97;5105298;28;20391;-66
2022/09/14 06:40:58;;;;;;;3.65;2.63;;;;;;;20.76;61.84;99705.34;5105013;28;20027;-67
2022/09/14 06:43:29;;;;;;;6.78;2.70;;;;;;;20.88;61.44;99715.34;5104604;28;20069;-65
2022/09/14 06:46:04;;;;;;;3.92;2.70;;;;;;;20.99;61.34;99713.88;5104456;28;20031;-65
2022/09/14 06:48:35;;;;;;;6.10;2.75;;;;;;;21.20;61.01;99710.81;5105008;28;20030;-66
2022/09/14 06:51:11;;;;;;;4.30;2.90;;;;;;;21.44;60.27;99690.97;5104431;28;20046;-65
2022/09/14 06:53:36;;;;;;;6.43;3.13;;;;;;;21.75;59.77;99682.78;5104659;28;20039;-65
2022/09/14 06:56:02;;;;;;;10.38;3.40;;;;;;;22.02;59.11;99679.63;5103110;28;20028;-66
2022/09/14 06:58:27;;;;;;;6.43;2.60;;;;;;;22.26;58.02;99676.06;5104387;28;20027;-65
2022/09/14 07:00:53;;;;;;;4.28;2.63;;;;;;;22.46;57.23;99672.25;5104140;28;20027;-66
2022/09/14 07:03:18;;;;;;;3.20;2.38;;;;;;;22.63;56.73;99682.41;5104580;28;20566;-66
2022/09/14 07:05:43;;;;;;;6.32;2.92;;;;;;;22.66;56.38;99668.28;5104086;28;20024;-66
2022/09/14 07:08:09;;;;;;;4.15;2.42;;;;;;;22.63;56.15;99646.03;5104607;28;20043;-66
2022/09/14 07:10:34;;;;;;;6.72;2.85;;;;;;;22.77;55.85;99670.25;5105869;28;20077;-66
2022/09/14 07:13:00;;;;;;;6.15;3.00;;;;;;;22.91;55.76;99685.44;5102796;28;20034;-66
2022/09/14 07:15:25;;;;;;;3.83;2.83;;;;;;;22.88;55.87;99696.84;5104598;28;20046;-66
2022/09/14 07:17:51;;;;;;;8.27;2.53;;;;;;;22.92;56.09;99705.44;5104277;28;20027;-65
2022/09/14 07:20:17;;;;;;;4.97;2.67;;;;;;;22.88;56.44;99705.03;5104038;28;20088;-66
2022/09/14 07:22:42;;;;;;;4.97;2.88;;;;;;;22.89;56.40;99711.34;5104664;28;20036;-66
2022/09/14 07:25:09;;;;;;;5.78;2.85;;;;;;;22.83;56.67;99707.59;5104776;28;20019;-65
2022/09/14 07:27:37;;;;;;;7.88;2.88;;;;;;;22.78;56.92;99723.03;5105525;28;20103;-65
2022/09/14 07:30:04;;;;;;;6.45;2.65;;;;;;;22.73;57.52;99731.91;5102374;28;20023;-65
2022/09/14 07:32:29;;;;;;;7.63;2.75;;;;;;;22.73;58.20;99725.63;5104712;28;20028;-65
2022/09/14 07:34:55;;;;;;;2.97;2.42;;;;;;;22.65;58.84;99724.03;5105657;28;20588;-65
2022/09/14 07:37:20;;;;;;;6.68;2.58;;;;;;;22.52;59.50;99702.28;5108575;28;20517;-66
2022/09/14 07:39:46;;;;;;;5.60;2.50;;;;;;;22.55;60.31;99701.84;5108256;28;20035;-65
2022/09/14 07:42:11;;;;;;;3.40;2.58;;;;;;;22.48;60.43;99694.75;5107617;28;20100;-66
2022/09/14 07:44:37;;;;;;;3.50;2.22;;;;;;;22.37;61.21;99687.28;5108855;28;20035;-65
2022/09/14 07:47:02;;;;;;;4.63;2.63;;;;;;;22.34;61.86;99688.56;5108379;28;20118;-65
2022/09/14 07:49:28;;;;;;;2.80;2.53;;;;;;;22.26;63.78;99680.66;5106159;28;20062;-65
2022/09/14 07:51:54;;;;;;;6.68;3.15;;;;;;;22.31;65.79;99697.22;5104343;28;20789;-65
2022/09/14 07:54:19;;;;;;;4.95;2.67;;;;;;;22.27;66.31;99696.00;5105859;28;20026;-65
2022/09/14 07:56:45;;;;;;;5.70;3.05;;;;;;;22.23;66.81;99697.50;5106437;28;20023;-65
2022/09/14 07:59:12;;;;;;;6.15;2.70;;;;;;;22.21;66.22;99696.88;5106518;27;20025;-65
2022/09/14 08:01:38;;;;;;;8.32;3.03;;;;;;;22.15;66.97;99675.94;5104832;28;20038;-65
2022/09/14 08:04:03;;;;;;;5.18;2.83;;;;;;;22.20;66.46;99676.94;5104854;28;20031;-65
2022/09/14 08:06:29;;;;;;;4.57;3.42;;;;;;;22.25;67.28;99679.81;5109220;27;20074;-65
2022/09/14 08:08:56;;;;;;;7.15;3.47;;;;;;;22.28;66.76;99664.91;5106705;28;20043;-65
2022/09/14 08:11:27;;;;;;;5.15;2.97;;;;;;;22.24;66.30;99669.13;5106610;28;20053;-64
2022/09/14 08:13:58;;;;;;;5.40;3.03;;;;;;;22.27;65.67;99674.13;5107097;28;20032;-65
2022/09/14 08:16:25;;;;;;;3.40;2.53;;;;;;;22.28;65.98;99675.81;5103548;28;20031;-66
2022/09/14 08:18:59;;;;;;;3.08;2.63;;;;;;;22.27;66.42;99657.75;5107068;28;20106;-65
2022/09/14 08:21:26;;;;;;;5.00;2.80;;;;;;;22.21;66.90;99648.56;5106701;28;20103;-65
2022/09/14 08:23:52;;;;;;;4.50;2.67;;;;;;;22.25;66.65;99660.69;5107107;27;20524;-65
2022/09/14 08:26:20;;;;;;;6.05;2.78;;;;;;;22.28;66.14;99662.16;5107396;28;20016;-66
2022/09/14 08:28:47;;;;;;;6.30;2.88;;;;;;;22.34;66.09;99667.53;5106919;28;20081;-65
2022/09/14 08:31:21;;;;;;;5.05;3.63;;;;;;;22.50;65.69;99657.94;5105975;27;20039;-65
2022/09/14 08:33:55;;;;;;;5.53;2.67;;;;;;;22.74;64.18;99657.06;5114907;27;20026;-65
2022/09/14 08:36:22;;;;;;;8.10;3.03;;;;;;;22.85;63.63;99650.78;5107298;28;20676;-65
2022/09/14 08:38:47;;;;;;;3.78;2.35;;;;;;;22.99;63.09;99654.22;5106809;28;20115;-65
2022/09/14 08:41:25;;;;;;;5.03;2.72;;;;;;;23.06;62.85;99654.94;5108169;27;20111;-67
2022/09/14 08:43:52;;;;;;;6.30;3.10;;;;;;;23.11;62.40;99658.66;5104367;28;20084;-66
2022/09/14 08:46:54;;;;;;;6.32;2.50;;;;;;;23.06;62.22;99639.38;5106900;28;20039;-65
2022/09/14 08:49:34;;;;;;;7.68;2.63;;;;;;;23.18;61.95;99653.91;5100845;27;20234;-66
2022/09/14 08:52:00;;;;;;;7.40;2.70;;;;;;;23.16;61.75;99658.81;5106141;28;20106;-66
2022/09/14 08:54:26;;;;;;;4.97;2.92;;;;;;;23.18;62.12;99648.44;5106372;27;20031;-65
2022/09/14 08:57:17;;;;;;;6.25;2.60;;;;;;;23.19;61.97;99641.94;5106687;28;20108;-66
2022/09/14 09:00:01;;;;;;;9.93;2.85;;;;;;;23.28;62.18;99643.28;5104466;28;20153;-66
2022/09/14 09:02:32;;;;;;;5.20;2.87;;;;;;;23.40;61.78;99638.69;5103535;27;20074;-65
2022/09/14 09:05:02;;;;;;;7.40;2.55;;;;;;;23.55;60.90;99630.88;5099654;28;20043;-65
2022/09/14 09:07:56;;;;;;;7.47;2.72;;;;;;;23.76;60.36;99633.06;5105306;27;20039;-65
2022/09/14 09:10:23;;;;;;;5.40;2.17;;;;;;;23.91;60.13;99616.16;5104855;27;20047;-65
2022/09/14 09:12:53;;;;;;;4.05;2.55;;;;;;;24.73;57.98;99610.38;5104543;28;20435;-67
2022/09/14 09:15:22;;;;;;;7.68;2.67;;;;;;;25.87;54.30;99613.66;5105695;28;20026;-67
2022/09/14 09:17:52;;;;;;;6.32;2.65;;;;;;;27.31;50.81;99613.16;5106271;28;20054;-67
2022/09/14 09:20:41;;;;;;;6.03;2.25;;;;;;;29.07;45.87;99606.16;5105588;28;20023;-67
2022/09/14 09:23:23;;;;;;;3.92;2.20;;;;;;;30.65;42.11;99589.00;5105504;28;20040;-66
2022/09/14 09:26:25;;;;;;;4.22;2.15;;;;;;;30.77;41.09;99580.41;5104623;28;20118;-67
2022/09/14 09:28:53;;;;;;;7.68;1.92;;;;;;;30.33;42.00;99589.38;5104293;28;20027;-67
2022/09/14 09:31:26;;;;;;;4.25;2.10;;;;;;;29.87;42.97;99592.47;5106961;28;20058;-66
2022/09/14 09:33:52;;;;;;;;;;;;;;;29.24;43.99;99604.00;5104668;28;20584;-67
2022/09/14 09:36:18;;;;;;;3.97;2.00;;;;;;;28.90;44.78;99611.03;5106622;28;19915;-66
2022/09/14 09:38:44;;;;;;;2.33;2.13;;;;;;;28.95;45.02;99609.13;5106802;27;20027;-68
2022/09/14 09:41:22;;;;;;;2.67;1.88;;;;;;;28.94;45.39;99595.59;5106754;28;20043;-66
2022/09/14 09:44:05;;;;;;;3.67;1.75;;;;;;;28.90;45.18;99600.00;5104971;28;20027;-67
2022/09/14 09:46:36;;;;;;;3.53;1.95;;;;;;;29.14;45.02;99602.03;5106632;28;20457;-66
2022/09/14 09:49:23;;;;;;;2.10;1.90;;;;;;;28.97;45.09;99576.56;5106564;28;20035;-68
2022/09/14 09:51:50;;;;;;;5.75;1.90;;;;;;;29.00;44.87;99588.97;5105891;28;20454;-68
2022/09/14 09:54:23;;;;;;;3.15;2.10;;;;;;;28.76;45.30;99596.94;5106636;28;20019;-68
2022/09/14 09:56:59;;;;;;;3.85;2.50;;;;;;;28.51;45.84;99591.28;5105812;28;20036;-68
2022/09/14 09:59:39;;;;;;;3.75;2.08;;;;;;;28.23;46.80;99598.00;5106369;28;20031;-68
2022/09/14 10:02:30;;;;;;;4.03;1.70;;;;;;;27.99;47.79;99590.38;5106153;28;20030;-68
2022/09/14 10:05:18;;;;;;;3.78;1.80;;;;;;;27.77;48.35;99584.97;5105781;28;20084;-68
2022/09/14 10:07:53;;;;;;;2.35;1.80;;;;;;;27.54;49.12;99595.50;5104675;28;20085;-66
2022/09/14 10:10:25;;;;;;;6.53;2.10;;;;;;;27.36;49.19;99596.72;5105932;27;20915;-66
2022/09/14 10:12:54;;;;;;;2.70;1.90;;;;;;;27.20;49.60;99599.53;5105688;28;20024;-68
2022/09/14 10:15:26;;;;;;;4.07;1.88;;;;;;;27.06;50.02;99604.63;5105188;28;20463;-68
2022/09/14 10:18:00;;;;;;;5.55;1.92;;;;;;;26.92;50.75;99589.56;5105059;28;20028;-68
2022/09/14 10:20:26;;;;;;;3.88;1.85;;;;;;;26.78;51.28;99579.22;5105789;28;20106;-68
2022/09/14 10:22:52;;;;;;;2.33;1.60;;;;;;;26.82;51.24;99586.72;5105415;28;20039;-68
2022/09/14 10:25:18;;;;;;;1.77;1.50;;;;;;;26.72;51.57;99586.59;5105959;28;20031;-68
2022/09/14 10:28:01;;;;;;;4.03;1.75;;;;;;;26.65;51.56;99582.38;5105488;28;20031;-68
2022/09/14 10:30:42;;;;;;;2.67;1.63;;;;;;;26.64;51.63;99583.47;5105637;28;20026;-66
2022/09/14 10:33:12;;;;;;;1.83;1.30;;;;;;;26.67;51.79;99588.47;5105956;28;20024;-66
2022/09/14 10:35:57;;;;;;;3.10;1.70;;;;;;;26.64;52.09;99588.97;5105693;28;20046;-67
2022/09/14 10:38:42;;;;;;;2.17;1.65;;;;;;;26.64;51.99;99592.56;5105460;28;20027;-67
2022/09/14 10:41:25;;;;;;;4.85;1.70;;;;;;;26.67;52.00;99586.56;5106409;28;20493;-66
2022/09/14 10:44:04;;;;;;;1.92;1.52;;;;;;;26.66;51.99;99587.63;5105235;28;20039;-66
2022/09/14 10:46:40;;;;;;;5.75;1.63;;;;;;;26.69;52.03;99592.59;5105550;28;20394;-65
2022/09/14 10:49:38;;;;;;;4.63;1.52;;;;;;;26.65;52.11;99594.22;5105607;28;20557;-66
2022/09/14 10:52:22;;;;;;;5.72;1.75;;;;;;;26.69;51.97;99594.56;5099379;28;20084;-66
2022/09/14 10:55:10;;;;;;;3.88;1.65;;;;;;;26.59;52.23;99599.91;5105162;28;20028;-66
2022/09/14 10:57:47;;;;;;;2.72;1.67;;;;;;;26.56;51.94;99594.91;5105326;28;20760;-65
2022/09/14 11:00:18;;;;;;;2.75;1.55;;;;;;;26.52;51.94;99591.81;5105727;28;20027;-66
2022/09/14 11:02:55;;;;;;;4.05;1.67;;;;;;;26.50;51.59;99581.06;5105092;28;20112;-66
2022/09/14 11:05:33;;;;;;;8.30;2.03;;;;;;;26.46;52.04;99579.91;5103781;28;20451;-66
2022/09/14 11:08:13;;;;;;;7.93;1.90;;;;;;;26.40;52.04;99580.94;5103245;28;20035;-66
2022/09/14 11:10:56;;;;;;;5.13;2.03;;;;;;;26.29;52.36;99570.91;5108751;28;20437;-67
2022/09/14 11:13:39;;;;;;;3.33;1.50;;;;;;;26.24;52.36;99564.47;5109113;28;20027;-67
2022/09/14 11:16:14;;;;;;;6.15;1.73;;;;;;;26.30;52.73;99583.53;5108305;28;20487;-66
2022/09/14 11:19:09;;;;;;;2.53;1.85;;;;;;;26.28;52.75;99568.41;5108625;28;20312;-66
2022/09/14 11:21:40;;;;;;;3.47;1.55;;;;;;;26.27;53.13;99575.81;5108669;28;20527;-66
2022/09/14 11:24:21;;;;;;;3.20;1.80;;;;;;;26.27;53.10;99572.22;5106705;28;20049;-65
2022/09/14 11:27:35;;;;;;;3.15;2.00;;;;;;;26.30;53.06;99567.06;5108356;28;21400;-65
2022/09/14 11:30:16;;;;;;;2.90;1.58;;;;;;;26.30;53.11;99571.72;5093840;28;20043;-66
2022/09/14 11:32:50;;;;;;;4.80;1.75;;;;;;;26.30;53.25;99558.81;5109123;28;20527;-65
2022/09/14 11:35:31;;;;;;;3.42;1.67;;;;;;;26.32;53.19;99564.88;5108803;28;20588;-66
2022/09/14 11:37:59;;;;;;;4.15;1.75;;;;;;;26.34;53.33;99561.84;5107124;28;20036;-65
2022/09/14 11:40:45;;;;;;;2.05;1.58;;;;;;;26.37;53.30;99566.84;5108445;28;20024;-66
2022/09/14 11:43:17;;;;;;;2.28;1.70;;;;;;;26.38;53.26;99558.34;5108522;28;20023;-66
2022/09/14 11:45:43;;;;;;;4.68;1.65;;;;;;;26.47;52.75;99554.06;5108606;28;20092;-66
2022/09/14 11:48:19;;;;;;;2.63;1.50;;;;;;;26.45;53.18;99560.91;5107275;28;20506;-66
2022/09/14 11:50:46;;;;;;;3.08;2.00;;;;;;;26.46;54.03;99565.31;5108491;28;20438;-65
2022/09/14 11:53:15;;;;;;;1.98;1.73;;;;;;;26.44;54.88;99559.25;5109060;28;20023;-66